sensor_id;sensor_type;location;lat;lon;timestamp;pressure;altitude;pressure_sealevel;temperature;humidity
26487;BME280;14425;56.136;40.360;2023-02-14T00:01:50;98037.78;;;0.33;100.00
26487;BME280;14425;56.136;40.360;2023-02-14T00:04:17;98045.19;;;0.28;100.00
26487;BME280;14425;56.136;40.360;2023-02-14T00:06:43;98037.78;;;0.33;100.00
26487;BME280;14425;56.136;40.360;2023-02-14T00:09:14;98041.38;;;0.54;100.00
26487;BME280;14425;56.136;40.360;2023-02-14T00:11:40;98035.47;;;0.38;100.00
26487;BME280;14425;56.136;40.360;2023-02-14T00:14:06;98042.00;;;0.32;100.00
26487;BME280;14425;56.136;40.360;2023-02-14T00:16:50;98037.91;;;0.02;100.00
26487;BME280;14425;56.136;40.360;2023-02-14T00:19:17;98038.78;;;0.02;100.00
26487;BME280;14425;56.136;40.360;2023-02-14T00:21:43;98043.09;;;0.38;100.00
26487;BME280;14425;56.136;40.360;2023-02-14T00:24:12;98046.81;;;0.62;100.00
26487;BME280;14425;56.136;40.360;2023-02-14T00:26:39;98046.31;;;0.69;100.00
26487;BME280;14425;56.136;40.360;2023-02-14T00:29:11;98056.13;;;0.11;100.00
26487;BME280;14425;56.136;40.360;2023-02-14T00:31:37;98056.78;;;0.07;100.00
26487;BME280;14425;56.136;40.360;2023-02-14T00:34:04;98066.44;;;-0.03;100.00
26487;BME280;14425;56.136;40.360;2023-02-14T00:36:31;98055.03;;;0.06;100.00
26487;BME280;14425;56.136;40.360;2023-02-14T00:38:57;98066.50;;;-0.01;100.00
26487;BME280;14425;56.136;40.360;2023-02-14T00:41:22;98068.00;;;0.12;100.00
26487;BME280;14425;56.136;40.360;2023-02-14T00:43:52;98063.13;;;-0.02;100.00
26487;BME280;14425;56.136;40.360;2023-02-14T00:46:20;98068.47;;;0.21;100.00
26487;BME280;14425;56.136;40.360;2023-02-14T00:48:46;98072.66;;;0.37;100.00
26487;BME280;14425;56.136;40.360;2023-02-14T00:51:12;98071.31;;;0.27;100.00
26487;BME280;14425;56.136;40.360;2023-02-14T00:53:38;98074.88;;;0.31;100.00
26487;BME280;14425;56.136;40.360;2023-02-14T00:56:04;98084.31;;;0.17;100.00
26487;BME280;14425;56.136;40.360;2023-02-14T00:58:30;98080.03;;;0.32;100.00
26487;BME280;14425;56.136;40.360;2023-02-14T01:00:56;98083.44;;;0.16;100.00
26487;BME280;14425;56.136;40.360;2023-02-14T01:03:22;98082.56;;;0.16;100.00
26487;BME280;14425;56.136;40.360;2023-02-14T01:05:49;98081.16;;;0.05;100.00
26487;BME280;14425;56.136;40.360;2023-02-14T01:08:14;98075.72;;;0.31;100.00
26487;BME280;14425;56.136;40.360;2023-02-14T01:10:40;98087.03;;;0.20;100.00
26487;BME280;14425;56.136;40.360;2023-02-14T01:13:06;98090.00;;;0.29;100.00
26487;BME280;14425;56.136;40.360;2023-02-14T01:15:32;98088.50;;;0.33;100.00
26487;BME280;14425;56.136;40.360;2023-02-14T01:17:58;98087.22;;;0.41;100.00
26487;BME280;14425;56.136;40.360;2023-02-14T01:20:26;98096.50;;;0.24;100.00
26487;BME280;14425;56.136;40.360;2023-02-14T01:22:51;98086.63;;;0.12;100.00
26487;BME280;14425;56.136;40.360;2023-02-14T01:25:17;98098.69;;;0.00;100.00
26487;BME280;14425;56.136;40.360;2023-02-14T01:27:43;98098.88;;;0.21;100.00
26487;BME280;14425;56.136;40.360;2023-02-14T01:30:09;98099.28;;;0.29;100.00
26487;BME280;14425;56.136;40.360;2023-02-14T01:32:35;98106.31;;;0.34;100.00
26487;BME280;14425;56.136;40.360;2023-02-14T01:35:01;98108.78;;;0.33;100.00
26487;BME280;14425;56.136;40.360;2023-02-14T01:37:26;98104.81;;;0.38;100.00
26487;BME280;14425;56.136;40.360;2023-02-14T01:39:53;98099.91;;;0.25;100.00
26487;BME280;14425;56.136;40.360;2023-02-14T01:42:19;98112.03;;;-0.03;100.00
26487;BME280;14425;56.136;40.360;2023-02-14T01:47:10;98108.41;;;0.25;100.00
26487;BME280;14425;56.136;40.360;2023-02-14T01:49:42;98105.63;;;0.37;100.00
26487;BME280;14425;56.136;40.360;2023-02-14T01:52:20;98110.75;;;0.55;100.00
26487;BME280;14425;56.136;40.360;2023-02-14T01:54:57;98106.47;;;0.38;100.00
26487;BME280;14425;56.136;40.360;2023-02-14T01:57:30;98112.06;;;0.30;100.00
26487;BME280;14425;56.136;40.360;2023-02-14T01:59:58;98114.50;;;0.45;100.00
26487;BME280;14425;56.136;40.360;2023-02-14T02:02:45;98127.13;;;0.78;100.00
26487;BME280;14425;56.136;40.360;2023-02-14T02:05:11;98121.09;;;0.42;100.00
26487;BME280;14425;56.136;40.360;2023-02-14T02:07:38;98135.97;;;0.52;100.00
26487;BME280;14425;56.136;40.360;2023-02-14T02:10:05;98129.13;;;0.51;100.00
26487;BME280;14425;56.136;40.360;2023-02-14T02:12:32;98135.97;;;0.52;100.00
26487;BME280;14425;56.136;40.360;2023-02-14T02:15:00;98127.69;;;0.56;100.00
26487;BME280;14425;56.136;40.360;2023-02-14T02:23:37;98130.72;;;0.65;100.00
26487;BME280;14425;56.136;40.360;2023-02-14T02:26:43;98132.16;;;0.44;100.00
26487;BME280;14425;56.136;40.360;2023-02-14T02:46:03;98144.16;;;0.81;100.00
26487;BME280;14425;56.136;40.360;2023-02-14T02:48:58;98140.88;;;1.00;100.00
26487;BME280;14425;56.136;40.360;2023-02-14T02:51:36;98148.72;;;0.88;100.00
26487;BME280;14425;56.136;40.360;2023-02-14T02:54:30;98147.28;;;0.59;100.00
26487;BME280;14425;56.136;40.360;2023-02-14T02:57:00;98147.06;;;0.54;100.00
26487;BME280;14425;56.136;40.360;2023-02-14T02:59:30;98134.38;;;0.54;100.00
26487;BME280;14425;56.136;40.360;2023-02-14T03:02:06;98140.56;;;0.43;100.00
26487;BME280;14425;56.136;40.360;2023-02-14T03:04:35;98145.63;;;0.43;100.00
26487;BME280;14425;56.136;40.360;2023-02-14T03:07:17;98149.59;;;0.38;100.00
26487;BME280;14425;56.136;40.360;2023-02-14T03:10:21;98150.50;;;0.22;100.00
26487;BME280;14425;56.136;40.360;2023-02-14T03:15:58;98153.41;;;0.29;100.00
26487;BME280;14425;56.136;40.360;2023-02-14T03:21:35;98159.41;;;0.64;100.00
26487;BME280;14425;56.136;40.360;2023-02-14T03:30:02;98165.22;;;0.12;100.00
26487;BME280;14425;56.136;40.360;2023-02-14T03:41:13;98171.03;;;-0.53;100.00
26487;BME280;14425;56.136;40.360;2023-02-14T03:43:44;98176.91;;;-0.38;100.00
26487;BME280;14425;56.136;40.360;2023-02-14T03:48:54;98186.88;;;-0.41;100.00
26487;BME280;14425;56.136;40.360;2023-02-14T03:51:21;98174.91;;;-0.12;100.00
26487;BME280;14425;56.136;40.360;2023-02-14T03:53:52;98181.03;;;-0.08;100.00
26487;BME280;14425;56.136;40.360;2023-02-14T03:56:25;98186.31;;;-0.04;100.00
26487;BME280;14425;56.136;40.360;2023-02-14T03:58:57;98181.78;;;-0.26;100.00
26487;BME280;14425;56.136;40.360;2023-02-14T04:01:31;98191.56;;;-0.32;100.00
26487;BME280;14425;56.136;40.360;2023-02-14T04:03:57;98191.91;;;-0.26;100.00
26487;BME280;14425;56.136;40.360;2023-02-14T04:06:23;98189.94;;;-0.31;100.00
26487;BME280;14425;56.136;40.360;2023-02-14T04:08:49;98197.69;;;-0.43;100.00
26487;BME280;14425;56.136;40.360;2023-02-14T04:11:14;98194.81;;;-0.34;100.00
26487;BME280;14425;56.136;40.360;2023-02-14T04:13:40;98202.00;;;-0.11;100.00
26487;BME280;14425;56.136;40.360;2023-02-14T04:16:05;98205.25;;;0.03;100.00
26487;BME280;14425;56.136;40.360;2023-02-14T04:18:31;98200.53;;;0.09;100.00
26487;BME280;14425;56.136;40.360;2023-02-14T04:21:15;98214.53;;;0.03;100.00
26487;BME280;14425;56.136;40.360;2023-02-14T04:23:41;98209.72;;;0.07;100.00
26487;BME280;14425;56.136;40.360;2023-02-14T04:26:07;98207.47;;;0.28;100.00
26487;BME280;14425;56.136;40.360;2023-02-14T04:28:32;98213.06;;;0.23;100.00
26487;BME280;14425;56.136;40.360;2023-02-14T04:31:03;98219.44;;;-0.01;100.00
26487;BME280;14425;56.136;40.360;2023-02-14T04:33:29;98212.66;;;-0.02;100.00
26487;BME280;14425;56.136;40.360;2023-02-14T04:35:54;98232.03;;;-0.02;100.00
26487;BME280;14425;56.136;40.360;2023-02-14T04:38:20;98218.28;;;-0.22;100.00
26487;BME280;14425;56.136;40.360;2023-02-14T04:40:48;98226.13;;;0.14;100.00
26487;BME280;14425;56.136;40.360;2023-02-14T04:43:14;98233.13;;;0.34;100.00
26487;BME280;14425;56.136;40.360;2023-02-14T04:45:40;98233.91;;;0.17;100.00
26487;BME280;14425;56.136;40.360;2023-02-14T04:48:05;98230.94;;;0.57;100.00
26487;BME280;14425;56.136;40.360;2023-02-14T04:50:31;98239.41;;;0.74;100.00
26487;BME280;14425;56.136;40.360;2023-02-14T04:52:56;98237.88;;;0.61;100.00
26487;BME280;14425;56.136;40.360;2023-02-14T04:55:22;98238.44;;;0.39;100.00
26487;BME280;14425;56.136;40.360;2023-02-14T04:57:47;98250.16;;;0.21;100.00
26487;BME280;14425;56.136;40.360;2023-02-14T05:00:13;98240.81;;;0.36;100.00
26487;BME280;14425;56.136;40.360;2023-02-14T05:02:39;98254.72;;;0.11;100.00
26487;BME280;14425;56.136;40.360;2023-02-14T05:05:04;98262.03;;;-0.10;100.00
26487;BME280;14425;56.136;40.360;2023-02-14T05:07:30;98262.69;;;0.03;100.00
26487;BME280;14425;56.136;40.360;2023-02-14T05:09:55;98270.22;;;0.01;100.00
26487;BME280;14425;56.136;40.360;2023-02-14T05:12:21;98268.47;;;0.48;100.00
26487;BME280;14425;56.136;40.360;2023-02-14T05:14:46;98277.69;;;0.14;100.00
26487;BME280;14425;56.136;40.360;2023-02-14T05:17:12;98284.28;;;0.11;100.00
26487;BME280;14425;56.136;40.360;2023-02-14T05:19:38;98280.34;;;0.01;100.00
26487;BME280;14425;56.136;40.360;2023-02-14T05:22:03;98283.50;;;0.12;100.00
26487;BME280;14425;56.136;40.360;2023-02-14T05:24:29;98289.88;;;0.36;100.00
26487;BME280;14425;56.136;40.360;2023-02-14T05:26:54;98298.06;;;0.16;100.00
26487;BME280;14425;56.136;40.360;2023-02-14T05:29:20;98302.56;;;0.05;100.00
26487;BME280;14425;56.136;40.360;2023-02-14T05:31:45;98301.72;;;-0.25;100.00
26487;BME280;14425;56.136;40.360;2023-02-14T05:34:11;98300.28;;;-0.05;100.00
26487;BME280;14425;56.136;40.360;2023-02-14T05:36:36;98298.81;;;-0.02;100.00
26487;BME280;14425;56.136;40.360;2023-02-14T05:39:02;98307.38;;;0.01;100.00
26487;BME280;14425;56.136;40.360;2023-02-14T05:41:27;98309.81;;;-0.01;100.00
26487;BME280;14425;56.136;40.360;2023-02-14T05:43:53;98310.63;;;0.29;100.00
26487;BME280;14425;56.136;40.360;2023-02-14T05:46:18;98312.69;;;0.20;100.00
26487;BME280;14425;56.136;40.360;2023-02-14T05:48:44;98314.50;;;0.23;100.00
26487;BME280;14425;56.136;40.360;2023-02-14T05:51:10;98315.91;;;0.17;100.00
26487;BME280;14425;56.136;40.360;2023-02-14T05:53:36;98318.91;;;0.10;100.00
26487;BME280;14425;56.136;40.360;2023-02-14T05:56:02;98328.41;;;0.46;100.00
26487;BME280;14425;56.136;40.360;2023-02-14T05:58:27;98316.97;;;0.69;100.00
26487;BME280;14425;56.136;40.360;2023-02-14T06:00:53;98319.59;;;1.03;100.00
26487;BME280;14425;56.136;40.360;2023-02-14T06:03:20;98321.13;;;1.00;100.00
26487;BME280;14425;56.136;40.360;2023-02-14T06:05:45;98318.00;;;0.89;100.00
26487;BME280;14425;56.136;40.360;2023-02-14T06:08:10;98317.06;;;0.87;100.00
26487;BME280;14425;56.136;40.360;2023-02-14T06:10:36;98314.75;;;1.08;100.00
26487;BME280;14425;56.136;40.360;2023-02-14T06:13:01;98324.78;;;1.23;100.00
26487;BME280;14425;56.136;40.360;2023-02-14T06:15:27;98327.22;;;1.03;100.00
26487;BME280;14425;56.136;40.360;2023-02-14T06:17:53;98338.22;;;1.04;100.00
26487;BME280;14425;56.136;40.360;2023-02-14T06:20:20;98337.13;;;0.51;100.00
26487;BME280;14425;56.136;40.360;2023-02-14T06:22:46;98338.38;;;0.74;100.00
26487;BME280;14425;56.136;40.360;2023-02-14T06:25:12;98339.91;;;1.20;100.00
26487;BME280;14425;56.136;40.360;2023-02-14T06:27:37;98336.78;;;1.25;100.00
26487;BME280;14425;56.136;40.360;2023-02-14T06:30:04;98340.06;;;1.06;100.00
26487;BME280;14425;56.136;40.360;2023-02-14T06:32:29;98337.63;;;1.42;100.00
26487;BME280;14425;56.136;40.360;2023-02-14T06:34:55;98334.81;;;1.20;100.00
26487;BME280;14425;56.136;40.360;2023-02-14T06:37:20;98334.66;;;1.33;100.00
26487;BME280;14425;56.136;40.360;2023-02-14T06:39:46;98342.56;;;1.39;100.00
26487;BME280;14425;56.136;40.360;2023-02-14T06:42:11;98344.72;;;1.48;100.00
26487;BME280;14425;56.136;40.360;2023-02-14T06:44:37;98345.34;;;1.27;100.00
26487;BME280;14425;56.136;40.360;2023-02-14T06:47:02;98339.59;;;1.64;100.00
26487;BME280;14425;56.136;40.360;2023-02-14T06:49:28;98348.06;;;1.14;100.00
26487;BME280;14425;56.136;40.360;2023-02-14T06:51:54;98342.69;;;0.91;100.00
26487;BME280;14425;56.136;40.360;2023-02-14T06:54:20;98354.56;;;1.09;100.00
26487;BME280;14425;56.136;40.360;2023-02-14T06:56:45;98357.75;;;1.05;100.00
26487;BME280;14425;56.136;40.360;2023-02-14T06:59:11;98359.25;;;1.18;100.00
26487;BME280;14425;56.136;40.360;2023-02-14T07:01:36;98365.44;;;1.23;100.00
26487;BME280;14425;56.136;40.360;2023-02-14T07:04:01;98363.22;;;1.29;100.00
26487;BME280;14425;56.136;40.360;2023-02-14T07:06:27;98368.09;;;1.59;100.00
26487;BME280;14425;56.136;40.360;2023-02-14T07:08:52;98372.41;;;1.60;100.00
26487;BME280;14425;56.136;40.360;2023-02-14T07:11:18;98362.47;;;1.64;100.00
26487;BME280;14425;56.136;40.360;2023-02-14T07:13:44;98375.19;;;1.64;100.00
26487;BME280;14425;56.136;40.360;2023-02-14T07:16:10;98372.66;;;1.48;100.00
26487;BME280;14425;56.136;40.360;2023-02-14T07:18:36;98377.03;;;1.34;100.00
26487;BME280;14425;56.136;40.360;2023-02-14T07:21:02;98379.41;;;1.31;100.00
26487;BME280;14425;56.136;40.360;2023-02-14T07:23:27;98385.44;;;1.50;100.00
26487;BME280;14425;56.136;40.360;2023-02-14T07:25:54;98380.84;;;2.11;100.00
26487;BME280;14425;56.136;40.360;2023-02-14T07:28:20;98374.25;;;2.15;100.00
26487;BME280;14425;56.136;40.360;2023-02-14T07:30:48;98383.38;;;2.47;100.00
26487;BME280;14425;56.136;40.360;2023-02-14T07:33:13;98380.97;;;2.68;100.00
26487;BME280;14425;56.136;40.360;2023-02-14T07:35:39;98389.53;;;2.88;100.00
26487;BME280;14425;56.136;40.360;2023-02-14T07:38:04;98390.28;;;3.05;100.00
26487;BME280;14425;56.136;40.360;2023-02-14T07:40:29;98401.50;;;3.48;100.00
26487;BME280;14425;56.136;40.360;2023-02-14T07:42:56;98410.19;;;2.94;100.00
26487;BME280;14425;56.136;40.360;2023-02-14T07:45:23;98404.47;;;2.81;100.00
26487;BME280;14425;56.136;40.360;2023-02-14T07:47:50;98412.97;;;2.81;100.00
26487;BME280;14425;56.136;40.360;2023-02-14T07:50:19;98418.31;;;1.63;100.00
26487;BME280;14425;56.136;40.360;2023-02-14T07:52:45;98419.75;;;1.41;100.00
26487;BME280;14425;56.136;40.360;2023-02-14T07:55:10;98428.81;;;2.21;100.00
26487;BME280;14425;56.136;40.360;2023-02-14T07:57:36;98424.66;;;2.24;100.00
26487;BME280;14425;56.136;40.360;2023-02-14T08:00:03;98431.16;;;2.53;100.00
26487;BME280;14425;56.136;40.360;2023-02-14T08:02:29;98438.06;;;2.91;100.00
26487;BME280;14425;56.136;40.360;2023-02-14T08:04:54;98442.88;;;1.97;100.00
26487;BME280;14425;56.136;40.360;2023-02-14T08:07:21;98447.94;;;1.97;100.00
26487;BME280;14425;56.136;40.360;2023-02-14T08:09:52;98452.75;;;1.25;100.00
26487;BME280;14425;56.136;40.360;2023-02-14T08:12:20;98457.75;;;1.23;100.00
26487;BME280;14425;56.136;40.360;2023-02-14T08:15:10;98461.31;;;1.10;100.00
26487;BME280;14425;56.136;40.360;2023-02-14T08:17:57;98452.28;;;1.32;100.00
26487;BME280;14425;56.136;40.360;2023-02-14T08:20:23;98475.16;;;1.32;100.00
26487;BME280;14425;56.136;40.360;2023-02-14T08:22:48;98460.78;;;2.16;100.00
26487;BME280;14425;56.136;40.360;2023-02-14T08:25:14;98470.53;;;2.25;100.00
26487;BME280;14425;56.136;40.360;2023-02-14T08:27:39;98473.41;;;2.31;100.00
26487;BME280;14425;56.136;40.360;2023-02-14T08:30:06;98467.03;;;1.72;100.00
26487;BME280;14425;56.136;40.360;2023-02-14T08:32:32;98484.38;;;1.46;100.00
26487;BME280;14425;56.136;40.360;2023-02-14T08:34:58;98483.72;;;1.67;100.00
26487;BME280;14425;56.136;40.360;2023-02-14T08:37:23;98482.38;;;1.57;100.00
26487;BME280;14425;56.136;40.360;2023-02-14T08:39:49;98479.13;;;1.76;100.00
26487;BME280;14425;56.136;40.360;2023-02-14T08:42:14;98486.44;;;1.87;100.00
26487;BME280;14425;56.136;40.360;2023-02-14T08:44:40;98485.50;;;1.68;100.00
26487;BME280;14425;56.136;40.360;2023-02-14T08:47:05;98489.22;;;2.26;100.00
26487;BME280;14425;56.136;40.360;2023-02-14T08:49:31;98489.44;;;2.30;100.00
26487;BME280;14425;56.136;40.360;2023-02-14T08:51:56;98497.03;;;2.47;100.00
26487;BME280;14425;56.136;40.360;2023-02-14T08:54:22;98498.69;;;2.81;100.00
26487;BME280;14425;56.136;40.360;2023-02-14T08:56:47;98492.25;;;2.18;100.00
26487;BME280;14425;56.136;40.360;2023-02-14T08:59:13;98503.97;;;1.49;100.00
26487;BME280;14425;56.136;40.360;2023-02-14T09:01:39;98508.03;;;2.11;100.00
26487;BME280;14425;56.136;40.360;2023-02-14T09:04:04;98499.78;;;3.23;100.00
26487;BME280;14425;56.136;40.360;2023-02-14T09:06:30;98505.59;;;3.39;100.00
26487;BME280;14425;56.136;40.360;2023-02-14T09:08:56;98509.88;;;2.84;100.00
26487;BME280;14425;56.136;40.360;2023-02-14T09:11:23;98512.09;;;2.08;100.00
26487;BME280;14425;56.136;40.360;2023-02-14T09:13:50;98519.72;;;2.08;100.00
26487;BME280;14425;56.136;40.360;2023-02-14T09:16:18;98518.91;;;1.59;100.00
26487;BME280;14425;56.136;40.360;2023-02-14T09:18:45;98521.19;;;1.38;100.00
26487;BME280;14425;56.136;40.360;2023-02-14T09:21:17;98528.00;;;0.91;100.00
26487;BME280;14425;56.136;40.360;2023-02-14T09:23:43;98525.13;;;1.48;100.00
26487;BME280;14425;56.136;40.360;2023-02-14T09:26:11;98517.81;;;1.87;100.00
26487;BME280;14425;56.136;40.360;2023-02-14T09:28:37;98528.47;;;1.80;100.00
26487;BME280;14425;56.136;40.360;2023-02-14T09:31:10;98523.22;;;1.93;100.00
26487;BME280;14425;56.136;40.360;2023-02-14T09:33:35;98538.19;;;1.39;100.00
26487;BME280;14425;56.136;40.360;2023-02-14T09:36:01;98541.84;;;0.82;100.00
26487;BME280;14425;56.136;40.360;2023-02-14T09:38:45;98549.44;;;0.82;100.00
26487;BME280;14425;56.136;40.360;2023-02-14T09:46:52;98554.00;;;1.19;100.00
26487;BME280;14425;56.136;40.360;2023-02-14T09:49:28;98572.06;;;1.08;100.00
26487;BME280;14425;56.136;40.360;2023-02-14T09:51:56;98568.41;;;1.03;100.00
26487;BME280;14425;56.136;40.360;2023-02-14T09:54:26;98577.19;;;0.94;100.00
26487;BME280;14425;56.136;40.360;2023-02-14T10:05:27;98572.03;;;2.37;100.00
26487;BME280;14425;56.136;40.360;2023-02-14T10:07:39;98580.75;;;1.43;100.00
26487;BME280;14425;56.136;40.360;2023-02-14T10:10:20;98586.78;;;0.99;100.00
26487;BME280;14425;56.136;40.360;2023-02-14T10:15:44;98598.91;;;0.73;100.00
26487;BME280;14425;56.136;40.360;2023-02-14T10:18:25;98605.69;;;0.60;100.00
26487;BME280;14425;56.136;40.360;2023-02-14T10:20:57;98612.84;;;0.22;100.00
26487;BME280;14425;56.136;40.360;2023-02-14T10:23:38;98619.59;;;0.51;100.00
26487;BME280;14425;56.136;40.360;2023-02-14T10:26:12;98618.63;;;0.49;100.00
26487;BME280;14425;56.136;40.360;2023-02-14T10:28:43;98628.03;;;0.65;100.00
26487;BME280;14425;56.136;40.360;2023-02-14T10:34:15;98631.69;;;1.61;100.00
26487;BME280;14425;56.136;40.360;2023-02-14T10:50:11;98641.19;;;2.79;100.00
26487;BME280;14425;56.136;40.360;2023-02-14T10:53:29;98632.97;;;2.85;100.00
26487;BME280;14425;56.136;40.360;2023-02-14T10:58:11;98639.34;;;3.65;100.00
26487;BME280;14425;56.136;40.360;2023-02-14T11:03:20;98635.88;;;4.59;91.50
26487;BME280;14425;56.136;40.360;2023-02-14T11:05:47;98652.34;;;3.89;91.95
26487;BME280;14425;56.136;40.360;2023-02-14T11:08:25;98653.13;;;3.32;94.56
26487;BME280;14425;56.136;40.360;2023-02-14T11:10:54;98655.44;;;3.28;94.21
26487;BME280;14425;56.136;40.360;2023-02-14T11:15:51;98670.09;;;2.63;100.00
26487;BME280;14425;56.136;40.360;2023-02-14T11:18:23;98666.69;;;2.30;100.00
26487;BME280;14425;56.136;40.360;2023-02-14T11:21:00;98674.63;;;2.36;100.00
26487;BME280;14425;56.136;40.360;2023-02-14T11:23:31;98672.53;;;2.78;100.00
26487;BME280;14425;56.136;40.360;2023-02-14T11:25:58;98672.06;;;2.69;99.90
26487;BME280;14425;56.136;40.360;2023-02-14T11:28:25;98682.91;;;2.48;100.00
26487;BME280;14425;56.136;40.360;2023-02-14T11:30:51;98687.50;;;2.55;100.00
26487;BME280;14425;56.136;40.360;2023-02-14T11:33:32;98690.31;;;3.11;98.65
26487;BME280;14425;56.136;40.360;2023-02-14T11:35:58;98696.88;;;2.73;97.78
26487;BME280;14425;56.136;40.360;2023-02-14T11:38:32;98704.03;;;2.14;100.00
26487;BME280;14425;56.136;40.360;2023-02-14T11:41:08;98698.59;;;2.90;100.00
26487;BME280;14425;56.136;40.360;2023-02-14T11:43:39;98699.69;;;2.61;99.53
26487;BME280;14425;56.136;40.360;2023-02-14T11:46:13;98702.41;;;2.64;99.60
26487;BME280;14425;56.136;40.360;2023-02-14T11:51:34;98722.66;;;2.30;100.00
26487;BME280;14425;56.136;40.360;2023-02-14T11:54:02;98726.53;;;1.92;100.00
26487;BME280;14425;56.136;40.360;2023-02-14T11:56:53;98729.56;;;2.16;100.00
26487;BME280;14425;56.136;40.360;2023-02-14T11:59:27;98733.66;;;1.82;100.00
26487;BME280;14425;56.136;40.360;2023-02-14T12:01:56;98745.16;;;2.07;100.00
26487;BME280;14425;56.136;40.360;2023-02-14T12:04:43;98735.06;;;2.73;100.00
26487;BME280;14425;56.136;40.360;2023-02-14T12:09:40;98747.41;;;3.32;95.87
26487;BME280;14425;56.136;40.360;2023-02-14T12:12:33;98749.69;;;2.77;95.38
26487;BME280;14425;56.136;40.360;2023-02-14T12:15:22;98760.22;;;2.19;100.00
26487;BME280;14425;56.136;40.360;2023-02-14T12:17:52;98770.72;;;1.94;100.00
26487;BME280;14425;56.136;40.360;2023-02-14T12:29:18;98787.50;;;2.21;100.00
26487;BME280;14425;56.136;40.360;2023-02-14T12:31:49;98789.22;;;2.06;100.00
26487;BME280;14425;56.136;40.360;2023-02-14T12:34:16;98792.44;;;2.18;100.00
26487;BME280;14425;56.136;40.360;2023-02-14T12:37:04;98794.53;;;2.11;100.00
26487;BME280;14425;56.136;40.360;2023-02-14T12:45:07;98806.31;;;1.94;100.00
26487;BME280;14425;56.136;40.360;2023-02-14T12:56:33;98823.25;;;1.93;99.64
26487;BME280;14425;56.136;40.360;2023-02-14T13:02:01;98822.88;;;2.02;97.61
26487;BME280;14425;56.136;40.360;2023-02-14T13:04:59;98843.50;;;1.47;100.00
26487;BME280;14425;56.136;40.360;2023-02-14T13:11:04;98852.19;;;1.80;99.81
26487;BME280;14425;56.136;40.360;2023-02-14T13:13:53;98853.31;;;1.71;100.00
26487;BME280;14425;56.136;40.360;2023-02-14T13:16:53;98857.19;;;1.94;100.00
26487;BME280;14425;56.136;40.360;2023-02-14T13:22:03;98870.72;;;1.78;100.00
26487;BME280;14425;56.136;40.360;2023-02-14T13:24:46;98872.63;;;1.24;100.00
26487;BME280;14425;56.136;40.360;2023-02-14T13:27:20;98878.63;;;0.83;100.00
26487;BME280;14425;56.136;40.360;2023-02-14T13:29:53;98877.50;;;0.64;100.00
26487;BME280;14425;56.136;40.360;2023-02-14T13:32:24;98889.00;;;0.59;100.00
26487;BME280;14425;56.136;40.360;2023-02-14T13:34:51;98887.03;;;1.38;100.00
26487;BME280;14425;56.136;40.360;2023-02-14T13:37:22;98887.97;;;1.98;100.00
26487;BME280;14425;56.136;40.360;2023-02-14T13:42:49;98901.34;;;1.66;100.00
26487;BME280;14425;56.136;40.360;2023-02-14T13:51:01;98915.63;;;1.64;100.00
26487;BME280;14425;56.136;40.360;2023-02-14T13:56:30;98922.50;;;1.80;100.00
26487;BME280;14425;56.136;40.360;2023-02-14T13:58:56;98918.28;;;2.40;100.00
26487;BME280;14425;56.136;40.360;2023-02-14T14:17:32;98955.16;;;1.31;100.00
26487;BME280;14425;56.136;40.360;2023-02-14T14:20:00;98960.91;;;1.41;100.00
26487;BME280;14425;56.136;40.360;2023-02-14T14:22:27;98956.88;;;1.73;100.00
26487;BME280;14425;56.136;40.360;2023-02-14T14:25:01;98973.75;;;1.29;100.00
26487;BME280;14425;56.136;40.360;2023-02-14T14:29:59;98976.78;;;1.80;100.00
26487;BME280;14425;56.136;40.360;2023-02-14T14:32:30;98975.00;;;1.36;100.00
26487;BME280;14425;56.136;40.360;2023-02-14T14:37:32;98983.25;;;1.47;100.00
26487;BME280;14425;56.136;40.360;2023-02-14T14:40:04;98983.94;;;1.44;100.00
26487;BME280;14425;56.136;40.360;2023-02-14T14:42:38;98989.13;;;1.04;100.00
26487;BME280;14425;56.136;40.360;2023-02-14T14:45:25;99000.16;;;1.18;100.00
26487;BME280;14425;56.136;40.360;2023-02-14T14:47:55;98999.84;;;1.14;100.00
26487;BME280;14425;56.136;40.360;2023-02-14T14:50:24;99002.09;;;1.22;100.00
26487;BME280;14425;56.136;40.360;2023-02-14T14:52:52;99002.44;;;1.42;100.00
26487;BME280;14425;56.136;40.360;2023-02-14T14:55:35;99010.31;;;1.60;100.00
26487;BME280;14425;56.136;40.360;2023-02-14T14:58:05;99010.44;;;1.06;100.00
26487;BME280;14425;56.136;40.360;2023-02-14T15:00:35;99024.75;;;0.52;100.00
26487;BME280;14425;56.136;40.360;2023-02-14T15:03:14;99027.31;;;0.79;100.00
26487;BME280;14425;56.136;40.360;2023-02-14T15:05:49;99030.72;;;0.66;100.00
26487;BME280;14425;56.136;40.360;2023-02-14T15:11:25;99043.59;;;0.56;100.00
26487;BME280;14425;56.136;40.360;2023-02-14T15:14:17;99049.69;;;0.98;100.00
26487;BME280;14425;56.136;40.360;2023-02-14T15:16:54;99042.03;;;0.58;100.00
26487;BME280;14425;56.136;40.360;2023-02-14T15:21:47;99058.47;;;0.77;100.00
26487;BME280;14425;56.136;40.360;2023-02-14T15:24:17;99055.25;;;0.79;100.00
26487;BME280;14425;56.136;40.360;2023-02-14T15:26:46;99054.16;;;1.02;100.00
26487;BME280;14425;56.136;40.360;2023-02-14T15:29:26;99065.41;;;0.92;100.00
26487;BME280;14425;56.136;40.360;2023-02-14T15:31:52;99069.19;;;0.86;100.00
26487;BME280;14425;56.136;40.360;2023-02-14T15:34:24;99079.72;;;0.52;100.00
26487;BME280;14425;56.136;40.360;2023-02-14T15:36:53;99071.16;;;1.30;100.00
26487;BME280;14425;56.136;40.360;2023-02-14T15:39:32;99084.22;;;0.83;100.00
26487;BME280;14425;56.136;40.360;2023-02-14T15:41:59;99087.06;;;0.74;100.00
26487;BME280;14425;56.136;40.360;2023-02-14T15:44:25;99093.44;;;0.42;100.00
26487;BME280;14425;56.136;40.360;2023-02-14T15:47:03;99100.50;;;0.21;100.00
26487;BME280;14425;56.136;40.360;2023-02-14T15:49:35;99101.00;;;0.67;100.00